Detall de PIREP

Printer-friendly versionPDF version

[2013/03/30 07:03:00]
Flight IATA:CT1004
Pilot Number:012
Company ICAO:CAT
Aircraft Type:B753/E
PAX:243
Departing Airport: LEBL
Destination Airport: LPAZ
Alternate Airport:LPPD
Online: VATSIM
Route:SENIA UZ596 NEXAS UN975 CCS DCT BUSEN DCT KOMUT 3820N BEKUN
Flight Level:F330
No Slew and time accel
No pause
Crash detect
Detect pilot in Cockpit between each 30 and 45 minutes
07:03 Zero fuel Weight: 196844 Lbs, Fuel Weight: 38060 Lbs
07:03 VATSIM:LEBL 300630Z 27014KT 9999 FEW035 16/08 Q1001 NOSIG
07:03 VATSIM:LPAZ 300630Z 22013KT 3000 BR BKN002 BKN004 16/16 Q1011 RESHRA
07:03 VOICE CATALONIAN / EASTER CHARTER
07:03 Parking Brakes off
07:11 Take-off
07:11 Take off Weight: 233753 Lbs
07:11 Wind: 272º @ 014 Knots Heading: 246º
07:11 POS N41º 17´ 06´´ E002º 04´ 58´´
07:11 Gear Up: 197 Knots
07:11 Flaps:2 at 197 Knots
07:11 Flaps:1 at 222 Knots
07:12 Flaps:0 at 229 Knots
07:25 TOC
07:25 Fuel Weight: 32559 Lb
07:26 Wind:277º@085 Knots Heading: 270º Ground Speed: 386 Knots Altitude 32667 ft
07:41 Wind:278º@096 Knots Heading: 255º Ground Speed: 382 Knots Altitude 32847 ft
07:56 Wind:288º@097 Knots Heading: 260º Ground Speed: 385 Knots Altitude 32995 ft
08:11 Wind:285º@103 Knots Heading: 260º Ground Speed: 377 Knots Altitude 33021 ft
08:26 Wind:283º@100 Knots Heading: 257º Ground Speed: 379 Knots Altitude 33083 ft
08:41 Wind:287º@101 Knots Heading: 257º Ground Speed: 383 Knots Altitude 33087 ft
08:56 Wind:285º@102 Knots Heading: 267º Ground Speed: 370 Knots Altitude 33090 ft
09:11 Wind:285º@102 Knots Heading: 266º Ground Speed: 371 Knots Altitude 33093 ft
09:26 Wind:285º@103 Knots Heading: 274º Ground Speed: 366 Knots Altitude 33024 ft
09:41 Wind:273º@110 Knots Heading: 271º Ground Speed: 356 Knots Altitude 33015 ft
09:56 Wind:275º@084 Knots Heading: 270º Ground Speed: 382 Knots Altitude 33015 ft
10:11 Wind:265º@142 Knots Heading: 267º Ground Speed: 325 Knots Altitude 33024 ft
10:26 Wind:265º@142 Knots Heading: 267º Ground Speed: 329 Knots Altitude 32949 ft
10:28 TOD
10:28 Fuel Weight: 6992 Lb
10:41 Wind:246º@090 Knots Heading: 239º Ground Speed: 279 Knots Altitude 15213 ft
10:52 Flaps:1 at 217 Knots
10:52 Flaps:2 at 212 Knots
10:53 Flaps:3 at 198 Knots
10:54 Flaps:4 at 180 Knots
10:55 Gear Down: 174 Knots
10:55 Flaps:5 at 171 Knots
10:56 Wind:232º@013 Knots Heading: 147º Ground Speed: 164 Knots Altitude 1650 ft
10:56 Flaps:6 at 162 Knots
10:58 Gear Up: 147 Knots
10:58 Flaps:4 at 148 Knots
10:58 Flaps:3 at 169 Knots
10:59 Flaps:2 at 237 Knots
11:01 Flaps:3 at 202 Knots
11:02 Flaps:4 at 174 Knots
11:05 Flaps:5 at 161 Knots
11:05 Gear Down: 159 Knots
11:06 Flaps:6 at 153 Knots
11:09TouchDown:Rate -388 ft/min Speed: 137 Knots
11:09 VATSIM:LPAZ 301100Z 23012KT 2000 BR BKN003 15/15 Q1012
11:09 Land
11:09 Wind:232º@013 Knots
11:09 Heading: 170º
11:09 Flight Duration: 03:58
11:09 Landing Weight: 199194 Lbs
11:09 POS N36º 57´ 39´´ W025º 10´ 07´´
11:13 Parking brakes on
11:13 Block to Block Duration: 04:10
11:13 Final Fuel: 1946 Lbls
11:13 Spent Fuel: 36113 Lbls
11:13 Flight Length: 1372 NM
11:13 TOD Land Length: 163 NM

Exportar CSV

Powered by Drupal - Modified by Danger4k